sensor_id;sensor_type;location;lat;lon;timestamp;P1;durP1;ratioP1;P2;durP2;ratioP2
21657;SDS011;10990;48.174;9.782;2023-11-21T00:01:02;5.10;;;1.60;;
21657;SDS011;10990;48.174;9.782;2023-11-21T00:03:31;4.50;;;1.63;;
21657;SDS011;10990;48.174;9.782;2023-11-21T00:05:57;6.07;;;1.20;;
21657;SDS011;10990;48.174;9.782;2023-11-21T00:08:23;6.17;;;1.30;;
21657;SDS011;10990;48.174;9.782;2023-11-21T00:10:49;8.37;;;1.57;;
21657;SDS011;10990;48.174;9.782;2023-11-21T00:13:15;6.63;;;1.40;;
21657;SDS011;10990;48.174;9.782;2023-11-21T00:15:41;4.47;;;1.40;;
21657;SDS011;10990;48.174;9.782;2023-11-21T00:18:08;8.77;;;1.63;;
21657;SDS011;10990;48.174;9.782;2023-11-21T00:20:36;8.13;;;1.50;;
21657;SDS011;10990;48.174;9.782;2023-11-21T00:23:02;3.00;;;1.00;;
21657;SDS011;10990;48.174;9.782;2023-11-21T00:25:29;6.00;;;1.70;;
21657;SDS011;10990;48.174;9.782;2023-11-21T00:27:55;7.90;;;1.50;;
21657;SDS011;10990;48.174;9.782;2023-11-21T00:30:21;5.30;;;1.20;;
21657;SDS011;10990;48.174;9.782;2023-11-21T00:32:47;4.37;;;1.30;;
21657;SDS011;10990;48.174;9.782;2023-11-21T00:35:13;5.67;;;1.37;;
21657;SDS011;10990;48.174;9.782;2023-11-21T00:37:42;6.07;;;1.40;;
21657;SDS011;10990;48.174;9.782;2023-11-21T00:40:09;5.60;;;1.30;;
21657;SDS011;10990;48.174;9.782;2023-11-21T00:42:36;6.10;;;1.70;;
21657;SDS011;10990;48.174;9.782;2023-11-21T00:45:02;5.27;;;1.37;;
21657;SDS011;10990;48.174;9.782;2023-11-21T00:47:29;7.33;;;1.50;;
21657;SDS011;10990;48.174;9.782;2023-11-21T00:49:55;6.87;;;1.30;;
21657;SDS011;10990;48.174;9.782;2023-11-21T00:52:21;7.30;;;1.40;;
21657;SDS011;10990;48.174;9.782;2023-11-21T00:54:50;4.60;;;1.30;;
21657;SDS011;10990;48.174;9.782;2023-11-21T00:57:16;3.90;;;1.40;;
21657;SDS011;10990;48.174;9.782;2023-11-21T00:59:42;5.30;;;1.17;;
21657;SDS011;10990;48.174;9.782;2023-11-21T01:02:09;6.20;;;1.40;;
21657;SDS011;10990;48.174;9.782;2023-11-21T01:04:35;5.30;;;1.10;;
21657;SDS011;10990;48.174;9.782;2023-11-21T01:07:01;4.60;;;1.40;;
21657;SDS011;10990;48.174;9.782;2023-11-21T01:09:27;4.97;;;1.20;;
21657;SDS011;10990;48.174;9.782;2023-11-21T01:11:56;5.80;;;1.00;;
21657;SDS011;10990;48.174;9.782;2023-11-21T01:14:22;5.10;;;1.20;;
21657;SDS011;10990;48.174;9.782;2023-11-21T01:16:48;2.57;;;1.00;;
21657;SDS011;10990;48.174;9.782;2023-11-21T01:19:14;3.83;;;1.10;;
21657;SDS011;10990;48.174;9.782;2023-11-21T01:21:40;2.80;;;1.13;;
21657;SDS011;10990;48.174;9.782;2023-11-21T01:24:07;5.60;;;1.27;;
21657;SDS011;10990;48.174;9.782;2023-11-21T01:26:33;6.40;;;1.30;;
21657;SDS011;10990;48.174;9.782;2023-11-21T01:29:03;2.60;;;0.97;;
21657;SDS011;10990;48.174;9.782;2023-11-21T01:31:30;5.67;;;1.20;;
21657;SDS011;10990;48.174;9.782;2023-11-21T01:33:56;4.33;;;1.03;;
21657;SDS011;10990;48.174;9.782;2023-11-21T01:36:22;7.63;;;1.20;;
21657;SDS011;10990;48.174;9.782;2023-11-21T01:38:48;5.93;;;1.27;;
21657;SDS011;10990;48.174;9.782;2023-11-21T01:41:15;5.33;;;1.50;;
21657;SDS011;10990;48.174;9.782;2023-11-21T01:43:41;8.50;;;1.33;;
21657;SDS011;10990;48.174;9.782;2023-11-21T01:46:10;5.53;;;1.10;;
21657;SDS011;10990;48.174;9.782;2023-11-21T01:48:36;5.13;;;1.27;;
21657;SDS011;10990;48.174;9.782;2023-11-21T01:51:03;7.10;;;1.20;;
21657;SDS011;10990;48.174;9.782;2023-11-21T01:53:30;8.60;;;1.60;;
21657;SDS011;10990;48.174;9.782;2023-11-21T01:55:56;6.07;;;1.37;;
21657;SDS011;10990;48.174;9.782;2023-11-21T01:58:22;5.90;;;1.20;;
21657;SDS011;10990;48.174;9.782;2023-11-21T02:00:48;4.43;;;1.30;;
21657;SDS011;10990;48.174;9.782;2023-11-21T02:03:17;3.63;;;1.00;;
21657;SDS011;10990;48.174;9.782;2023-11-21T02:05:43;4.83;;;1.10;;
21657;SDS011;10990;48.174;9.782;2023-11-21T02:08:09;5.57;;;1.10;;
21657;SDS011;10990;48.174;9.782;2023-11-21T02:10:35;4.40;;;1.10;;
21657;SDS011;10990;48.174;9.782;2023-11-21T02:13:01;4.70;;;1.20;;
21657;SDS011;10990;48.174;9.782;2023-11-21T02:15:27;3.47;;;1.10;;
21657;SDS011;10990;48.174;9.782;2023-11-21T02:17:54;3.50;;;1.00;;
21657;SDS011;10990;48.174;9.782;2023-11-21T02:20:24;4.30;;;0.90;;
21657;SDS011;10990;48.174;9.782;2023-11-21T02:22:53;5.37;;;1.30;;
21657;SDS011;10990;48.174;9.782;2023-11-21T02:25:20;3.37;;;1.00;;
21657;SDS011;10990;48.174;9.782;2023-11-21T02:27:46;5.93;;;1.00;;
21657;SDS011;10990;48.174;9.782;2023-11-21T02:30:13;4.93;;;1.00;;
21657;SDS011;10990;48.174;9.782;2023-11-21T02:32:40;4.93;;;1.00;;
21657;SDS011;10990;48.174;9.782;2023-11-21T02:35:06;3.80;;;1.10;;
21657;SDS011;10990;48.174;9.782;2023-11-21T02:37:33;3.70;;;1.30;;
21657;SDS011;10990;48.174;9.782;2023-11-21T02:40:02;4.47;;;1.03;;
21657;SDS011;10990;48.174;9.782;2023-11-21T02:42:28;4.10;;;1.00;;
21657;SDS011;10990;48.174;9.782;2023-11-21T02:44:55;4.57;;;0.90;;
21657;SDS011;10990;48.174;9.782;2023-11-21T02:47:21;4.13;;;1.07;;
21657;SDS011;10990;48.174;9.782;2023-11-21T02:49:47;2.30;;;0.90;;
21657;SDS011;10990;48.174;9.782;2023-11-21T02:52:13;1.90;;;0.80;;
21657;SDS011;10990;48.174;9.782;2023-11-21T02:54:39;3.13;;;0.93;;
21657;SDS011;10990;48.174;9.782;2023-11-21T02:57:08;4.47;;;1.00;;
21657;SDS011;10990;48.174;9.782;2023-11-21T02:59:34;4.67;;;0.80;;
21657;SDS011;10990;48.174;9.782;2023-11-21T03:02:00;3.97;;;0.90;;
21657;SDS011;10990;48.174;9.782;2023-11-21T03:04:27;2.17;;;1.00;;
21657;SDS011;10990;48.174;9.782;2023-11-21T03:06:53;4.27;;;1.00;;
21657;SDS011;10990;48.174;9.782;2023-11-21T03:09:19;5.67;;;1.50;;
21657;SDS011;10990;48.174;9.782;2023-11-21T03:11:45;4.07;;;1.07;;
21657;SDS011;10990;48.174;9.782;2023-11-21T03:14:14;4.00;;;1.00;;
21657;SDS011;10990;48.174;9.782;2023-11-21T03:16:40;4.60;;;1.37;;
21657;SDS011;10990;48.174;9.782;2023-11-21T03:19:06;2.73;;;0.90;;
21657;SDS011;10990;48.174;9.782;2023-11-21T03:21:32;6.53;;;1.03;;
21657;SDS011;10990;48.174;9.782;2023-11-21T03:23:58;5.27;;;1.07;;
21657;SDS011;10990;48.174;9.782;2023-11-21T03:26:24;5.47;;;1.13;;
21657;SDS011;10990;48.174;9.782;2023-11-21T03:28:51;2.83;;;1.00;;
21657;SDS011;10990;48.174;9.782;2023-11-21T03:31:19;4.00;;;1.10;;
21657;SDS011;10990;48.174;9.782;2023-11-21T03:33:45;4.27;;;0.97;;
21657;SDS011;10990;48.174;9.782;2023-11-21T03:36:11;3.37;;;1.03;;
21657;SDS011;10990;48.174;9.782;2023-11-21T03:38:38;5.20;;;1.07;;
21657;SDS011;10990;48.174;9.782;2023-11-21T03:41:04;5.70;;;1.10;;
21657;SDS011;10990;48.174;9.782;2023-11-21T03:43:31;3.63;;;0.90;;
21657;SDS011;10990;48.174;9.782;2023-11-21T03:45:57;5.23;;;1.10;;
21657;SDS011;10990;48.174;9.782;2023-11-21T03:48:26;4.63;;;1.20;;
21657;SDS011;10990;48.174;9.782;2023-11-21T03:50:52;5.17;;;1.40;;
21657;SDS011;10990;48.174;9.782;2023-11-21T03:53:18;3.27;;;0.90;;
21657;SDS011;10990;48.174;9.782;2023-11-21T03:55:44;6.73;;;1.10;;
21657;SDS011;10990;48.174;9.782;2023-11-21T03:58:11;6.00;;;1.00;;
21657;SDS011;10990;48.174;9.782;2023-11-21T04:00:37;5.80;;;1.10;;
21657;SDS011;10990;48.174;9.782;2023-11-21T04:03:03;3.37;;;0.97;;
21657;SDS011;10990;48.174;9.782;2023-11-21T04:05:32;3.07;;;0.90;;
21657;SDS011;10990;48.174;9.782;2023-11-21T04:07:58;1.90;;;0.80;;
21657;SDS011;10990;48.174;9.782;2023-11-21T04:10:24;3.87;;;1.00;;
21657;SDS011;10990;48.174;9.782;2023-11-21T04:12:50;3.23;;;1.00;;
21657;SDS011;10990;48.174;9.782;2023-11-21T04:15:16;2.27;;;0.80;;
21657;SDS011;10990;48.174;9.782;2023-11-21T04:17:42;6.17;;;0.90;;
21657;SDS011;10990;48.174;9.782;2023-11-21T04:20:09;4.73;;;1.07;;
21657;SDS011;10990;48.174;9.782;2023-11-21T04:22:39;1.27;;;0.70;;
21657;SDS011;10990;48.174;9.782;2023-11-21T04:25:05;2.77;;;0.87;;
21657;SDS011;10990;48.174;9.782;2023-11-21T04:27:31;2.13;;;1.00;;
21657;SDS011;10990;48.174;9.782;2023-11-21T04:29:58;3.00;;;0.97;;
21657;SDS011;10990;48.174;9.782;2023-11-21T04:32:24;3.50;;;0.80;;
21657;SDS011;10990;48.174;9.782;2023-11-21T04:34:50;3.53;;;0.80;;
21657;SDS011;10990;48.174;9.782;2023-11-21T04:37:16;1.67;;;0.80;;
21657;SDS011;10990;48.174;9.782;2023-11-21T04:39:45;2.43;;;0.80;;
21657;SDS011;10990;48.174;9.782;2023-11-21T04:42:11;2.50;;;0.70;;
21657;SDS011;10990;48.174;9.782;2023-11-21T04:44:37;3.83;;;0.80;;
21657;SDS011;10990;48.174;9.782;2023-11-21T04:47:04;2.87;;;0.80;;
21657;SDS011;10990;48.174;9.782;2023-11-21T04:49:30;2.33;;;0.80;;
21657;SDS011;10990;48.174;9.782;2023-11-21T04:51:56;5.33;;;1.10;;
21657;SDS011;10990;48.174;9.782;2023-11-21T04:54:22;2.30;;;0.67;;
21657;SDS011;10990;48.174;9.782;2023-11-21T04:56:51;1.87;;;0.90;;
21657;SDS011;10990;48.174;9.782;2023-11-21T04:59:17;3.47;;;1.13;;
21657;SDS011;10990;48.174;9.782;2023-11-21T05:01:43;3.17;;;1.00;;
21657;SDS011;10990;48.174;9.782;2023-11-21T05:04:09;2.53;;;0.90;;
21657;SDS011;10990;48.174;9.782;2023-11-21T05:06:36;1.97;;;0.70;;
21657;SDS011;10990;48.174;9.782;2023-11-21T05:09:02;1.53;;;0.60;;
21657;SDS011;10990;48.174;9.782;2023-11-21T05:11:28;3.30;;;0.90;;
21657;SDS011;10990;48.174;9.782;2023-11-21T05:13:57;5.43;;;1.20;;
21657;SDS011;10990;48.174;9.782;2023-11-21T05:16:25;3.60;;;1.30;;
21657;SDS011;10990;48.174;9.782;2023-11-21T05:18:51;4.40;;;1.57;;
21657;SDS011;10990;48.174;9.782;2023-11-21T05:21:17;4.30;;;1.33;;
21657;SDS011;10990;48.174;9.782;2023-11-21T05:23:43;3.90;;;1.60;;
21657;SDS011;10990;48.174;9.782;2023-11-21T05:26:09;3.03;;;1.70;;
21657;SDS011;10990;48.174;9.782;2023-11-21T05:28:36;1.67;;;1.10;;
21657;SDS011;10990;48.174;9.782;2023-11-21T05:31:04;2.53;;;1.40;;
21657;SDS011;10990;48.174;9.782;2023-11-21T05:33:30;2.87;;;1.40;;
21657;SDS011;10990;48.174;9.782;2023-11-21T05:35:57;1.73;;;1.60;;
21657;SDS011;10990;48.174;9.782;2023-11-21T05:38:23;3.80;;;2.30;;
21657;SDS011;10990;48.174;9.782;2023-11-21T05:40:49;4.67;;;2.20;;
21657;SDS011;10990;48.174;9.782;2023-11-21T05:43:15;2.53;;;1.60;;
21657;SDS011;10990;48.174;9.782;2023-11-21T05:45:41;2.50;;;1.20;;
21657;SDS011;10990;48.174;9.782;2023-11-21T05:48:10;1.80;;;1.23;;
21657;SDS011;10990;48.174;9.782;2023-11-21T05:50:36;3.23;;;1.50;;
21657;SDS011;10990;48.174;9.782;2023-11-21T05:53:02;3.37;;;2.10;;
21657;SDS011;10990;48.174;9.782;2023-11-21T05:55:28;3.13;;;1.73;;
21657;SDS011;10990;48.174;9.782;2023-11-21T05:57:54;2.90;;;1.30;;
21657;SDS011;10990;48.174;9.782;2023-11-21T06:00:20;3.30;;;1.47;;
21657;SDS011;10990;48.174;9.782;2023-11-21T06:02:46;1.97;;;0.97;;
21657;SDS011;10990;48.174;9.782;2023-11-21T06:05:16;2.77;;;0.97;;
21657;SDS011;10990;48.174;9.782;2023-11-21T06:07:43;2.30;;;1.10;;
21657;SDS011;10990;48.174;9.782;2023-11-21T06:10:10;2.97;;;1.00;;
21657;SDS011;10990;48.174;9.782;2023-11-21T06:12:37;2.07;;;1.10;;
21657;SDS011;10990;48.174;9.782;2023-11-21T06:15:04;1.97;;;1.10;;
21657;SDS011;10990;48.174;9.782;2023-11-21T06:17:31;3.10;;;1.00;;
21657;SDS011;10990;48.174;9.782;2023-11-21T06:19:57;2.80;;;1.07;;
21657;SDS011;10990;48.174;9.782;2023-11-21T06:22:26;2.60;;;1.03;;
21657;SDS011;10990;48.174;9.782;2023-11-21T06:24:52;4.07;;;1.87;;
21657;SDS011;10990;48.174;9.782;2023-11-21T06:27:18;3.47;;;2.60;;
21657;SDS011;10990;48.174;9.782;2023-11-21T06:29:44;4.50;;;2.47;;
21657;SDS011;10990;48.174;9.782;2023-11-21T06:32:10;1.97;;;1.60;;
21657;SDS011;10990;48.174;9.782;2023-11-21T06:34:37;2.70;;;1.43;;
21657;SDS011;10990;48.174;9.782;2023-11-21T06:37:03;5.13;;;2.30;;
21657;SDS011;10990;48.174;9.782;2023-11-21T06:39:32;6.93;;;3.20;;
21657;SDS011;10990;48.174;9.782;2023-11-21T06:41:58;12.40;;;5.83;;
21657;SDS011;10990;48.174;9.782;2023-11-21T06:44:24;17.73;;;8.53;;
21657;SDS011;10990;48.174;9.782;2023-11-21T06:46:50;15.27;;;7.23;;
21657;SDS011;10990;48.174;9.782;2023-11-21T06:49:16;13.37;;;6.00;;
21657;SDS011;10990;48.174;9.782;2023-11-21T06:51:42;10.90;;;5.10;;
21657;SDS011;10990;48.174;9.782;2023-11-21T06:54:08;5.10;;;3.00;;
21657;SDS011;10990;48.174;9.782;2023-11-21T06:56:37;4.20;;;2.57;;
21657;SDS011;10990;48.174;9.782;2023-11-21T06:59:03;2.53;;;1.40;;
21657;SDS011;10990;48.174;9.782;2023-11-21T07:01:29;3.17;;;1.10;;
21657;SDS011;10990;48.174;9.782;2023-11-21T07:03:55;2.33;;;1.00;;
21657;SDS011;10990;48.174;9.782;2023-11-21T07:06:22;3.83;;;1.30;;
21657;SDS011;10990;48.174;9.782;2023-11-21T07:08:48;2.50;;;1.20;;
21657;SDS011;10990;48.174;9.782;2023-11-21T07:11:14;2.80;;;0.90;;
21657;SDS011;10990;48.174;9.782;2023-11-21T07:13:43;2.47;;;1.10;;
21657;SDS011;10990;48.174;9.782;2023-11-21T07:16:09;3.80;;;1.07;;
21657;SDS011;10990;48.174;9.782;2023-11-21T07:18:35;2.70;;;0.90;;
21657;SDS011;10990;48.174;9.782;2023-11-21T07:21:01;2.93;;;1.20;;
21657;SDS011;10990;48.174;9.782;2023-11-21T07:23:28;2.07;;;0.80;;
21657;SDS011;10990;48.174;9.782;2023-11-21T07:25:54;2.67;;;0.93;;
21657;SDS011;10990;48.174;9.782;2023-11-21T07:28:20;2.03;;;0.93;;
21657;SDS011;10990;48.174;9.782;2023-11-21T07:30:49;2.13;;;0.90;;
21657;SDS011;10990;48.174;9.782;2023-11-21T07:33:15;3.20;;;0.90;;
21657;SDS011;10990;48.174;9.782;2023-11-21T07:35:41;3.53;;;1.00;;
21657;SDS011;10990;48.174;9.782;2023-11-21T07:38:07;0.90;;;0.80;;
21657;SDS011;10990;48.174;9.782;2023-11-21T07:40:33;0.97;;;0.87;;
21657;SDS011;10990;48.174;9.782;2023-11-21T07:43:00;2.37;;;0.90;;
21657;SDS011;10990;48.174;9.782;2023-11-21T07:45:27;2.67;;;1.00;;
21657;SDS011;10990;48.174;9.782;2023-11-21T07:47:56;2.10;;;1.03;;
21657;SDS011;10990;48.174;9.782;2023-11-21T07:50:22;3.03;;;1.30;;
21657;SDS011;10990;48.174;9.782;2023-11-21T07:52:48;1.87;;;1.00;;
21657;SDS011;10990;48.174;9.782;2023-11-21T07:55:14;1.13;;;0.80;;
21657;SDS011;10990;48.174;9.782;2023-11-21T07:57:41;1.43;;;0.87;;
21657;SDS011;10990;48.174;9.782;2023-11-21T08:00:07;3.47;;;0.97;;
21657;SDS011;10990;48.174;9.782;2023-11-21T08:02:38;4.77;;;1.20;;
21657;SDS011;10990;48.174;9.782;2023-11-21T08:05:07;1.43;;;0.90;;
21657;SDS011;10990;48.174;9.782;2023-11-21T08:07:33;3.13;;;1.00;;
21657;SDS011;10990;48.174;9.782;2023-11-21T08:09:59;2.47;;;1.00;;
21657;SDS011;10990;48.174;9.782;2023-11-21T08:12:26;1.90;;;1.00;;
21657;SDS011;10990;48.174;9.782;2023-11-21T08:14:52;2.93;;;1.00;;
21657;SDS011;10990;48.174;9.782;2023-11-21T08:17:18;3.73;;;1.00;;
21657;SDS011;10990;48.174;9.782;2023-11-21T08:19:44;1.90;;;1.00;;
21657;SDS011;10990;48.174;9.782;2023-11-21T08:22:13;2.03;;;1.00;;
21657;SDS011;10990;48.174;9.782;2023-11-21T08:24:39;2.37;;;0.87;;
21657;SDS011;10990;48.174;9.782;2023-11-21T08:27:05;2.87;;;0.90;;
21657;SDS011;10990;48.174;9.782;2023-11-21T08:29:31;2.07;;;0.90;;
21657;SDS011;10990;48.174;9.782;2023-11-21T08:31:57;2.37;;;1.00;;
21657;SDS011;10990;48.174;9.782;2023-11-21T08:34:23;3.60;;;1.23;;
21657;SDS011;10990;48.174;9.782;2023-11-21T08:36:49;2.20;;;1.20;;
21657;SDS011;10990;48.174;9.782;2023-11-21T08:39:18;4.00;;;1.40;;
21657;SDS011;10990;48.174;9.782;2023-11-21T08:41:44;2.60;;;1.27;;
21657;SDS011;10990;48.174;9.782;2023-11-21T08:44:10;4.47;;;1.20;;
21657;SDS011;10990;48.174;9.782;2023-11-21T08:46:36;4.23;;;1.40;;
21657;SDS011;10990;48.174;9.782;2023-11-21T08:49:03;3.13;;;1.23;;
21657;SDS011;10990;48.174;9.782;2023-11-21T08:51:29;3.17;;;1.20;;
21657;SDS011;10990;48.174;9.782;2023-11-21T08:53:55;3.77;;;1.20;;
21657;SDS011;10990;48.174;9.782;2023-11-21T08:56:24;1.23;;;1.00;;
21657;SDS011;10990;48.174;9.782;2023-11-21T08:58:50;2.10;;;1.00;;
21657;SDS011;10990;48.174;9.782;2023-11-21T09:01:16;2.83;;;1.10;;
21657;SDS011;10990;48.174;9.782;2023-11-21T09:03:42;3.28;;;1.10;;
21657;SDS011;10990;48.174;9.782;2023-11-21T09:06:08;2.05;;;1.15;;
21657;SDS011;10990;48.174;9.782;2023-11-21T09:08:35;3.00;;;1.15;;
21657;SDS011;10990;48.174;9.782;2023-11-21T09:11:01;1.93;;;1.20;;
21657;SDS011;10990;48.174;9.782;2023-11-21T09:13:30;1.07;;;1.00;;
21657;SDS011;10990;48.174;9.782;2023-11-21T09:15:56;3.23;;;1.30;;
21657;SDS011;10990;48.174;9.782;2023-11-21T09:18:22;2.28;;;1.42;;
21657;SDS011;10990;48.174;9.782;2023-11-21T09:20:48;2.33;;;1.23;;
21657;SDS011;10990;48.174;9.782;2023-11-21T09:23:14;2.27;;;1.30;;
21657;SDS011;10990;48.174;9.782;2023-11-21T09:25:41;3.15;;;1.40;;
21657;SDS011;10990;48.174;9.782;2023-11-21T09:28:07;1.60;;;1.30;;
21657;SDS011;10990;48.174;9.782;2023-11-21T09:30:35;2.63;;;1.30;;
21657;SDS011;10990;48.174;9.782;2023-11-21T09:33:02;3.77;;;1.90;;
21657;SDS011;10990;48.174;9.782;2023-11-21T09:35:29;1.40;;;1.30;;
21657;SDS011;10990;48.174;9.782;2023-11-21T09:37:55;3.40;;;1.30;;
21657;SDS011;10990;48.174;9.782;2023-11-21T09:40:21;4.60;;;1.40;;
21657;SDS011;10990;48.174;9.782;2023-11-21T09:42:49;3.33;;;1.73;;
21657;SDS011;10990;48.174;9.782;2023-11-21T09:45:21;1.88;;;1.60;;
21657;SDS011;10990;48.174;9.782;2023-11-21T09:47:54;2.53;;;1.70;;
21657;SDS011;10990;48.174;9.782;2023-11-21T09:50:21;3.20;;;1.33;;
21657;SDS011;10990;48.174;9.782;2023-11-21T09:52:50;3.00;;;1.27;;
21657;SDS011;10990;48.174;9.782;2023-11-21T09:55:20;2.78;;;1.45;;
21657;SDS011;10990;48.174;9.782;2023-11-21T09:57:47;2.08;;;1.38;;
21657;SDS011;10990;48.174;9.782;2023-11-21T10:00:13;4.15;;;1.42;;
21657;SDS011;10990;48.174;9.782;2023-11-21T10:02:40;1.98;;;1.20;;
21657;SDS011;10990;48.174;9.782;2023-11-21T10:05:09;3.72;;;1.40;;
21657;SDS011;10990;48.174;9.782;2023-11-21T10:07:35;1.88;;;1.25;;
21657;SDS011;10990;48.174;9.782;2023-11-21T10:10:03;2.85;;;1.15;;
21657;SDS011;10990;48.174;9.782;2023-11-21T10:12:32;1.55;;;1.20;;
21657;SDS011;10990;48.174;9.782;2023-11-21T10:14:59;2.10;;;1.27;;
21657;SDS011;10990;48.174;9.782;2023-11-21T10:17:25;2.58;;;1.40;;
21657;SDS011;10990;48.174;9.782;2023-11-21T10:19:53;3.83;;;1.50;;
21657;SDS011;10990;48.174;9.782;2023-11-21T10:22:23;3.15;;;1.50;;
21657;SDS011;10990;48.174;9.782;2023-11-21T10:24:50;3.47;;;1.50;;
21657;SDS011;10990;48.174;9.782;2023-11-21T10:27:16;1.90;;;1.08;;
21657;SDS011;10990;48.174;9.782;2023-11-21T10:29:42;1.63;;;1.08;;
21657;SDS011;10990;48.174;9.782;2023-11-21T10:32:08;2.33;;;1.30;;
21657;SDS011;10990;48.174;9.782;2023-11-21T10:34:34;2.65;;;1.20;;
21657;SDS011;10990;48.174;9.782;2023-11-21T10:37:02;3.00;;;1.20;;
21657;SDS011;10990;48.174;9.782;2023-11-21T10:39:39;1.58;;;1.20;;
21657;SDS011;10990;48.174;9.782;2023-11-21T10:42:08;2.17;;;1.30;;
21657;SDS011;10990;48.174;9.782;2023-11-21T10:44:34;2.63;;;1.00;;
21657;SDS011;10990;48.174;9.782;2023-11-21T10:47:00;1.02;;;0.90;;
21657;SDS011;10990;48.174;9.782;2023-11-21T10:49:26;2.33;;;1.10;;
21657;SDS011;10990;48.174;9.782;2023-11-21T10:51:53;1.42;;;1.10;;
21657;SDS011;10990;48.174;9.782;2023-11-21T10:54:19;2.45;;;1.23;;
21657;SDS011;10990;48.174;9.782;2023-11-21T10:56:49;3.03;;;1.40;;
21657;SDS011;10990;48.174;9.782;2023-11-21T10:59:18;2.60;;;1.20;;
21657;SDS011;10990;48.174;9.782;2023-11-21T11:01:45;3.45;;;1.40;;
21657;SDS011;10990;48.174;9.782;2023-11-21T11:04:11;1.88;;;1.27;;
21657;SDS011;10990;48.174;9.782;2023-11-21T11:06:39;1.58;;;1.17;;
21657;SDS011;10990;48.174;9.782;2023-11-21T11:09:05;2.47;;;1.30;;
21657;SDS011;10990;48.174;9.782;2023-11-21T11:11:32;1.58;;;1.02;;
21657;SDS011;10990;48.174;9.782;2023-11-21T11:14:01;3.85;;;1.25;;
21657;SDS011;10990;48.174;9.782;2023-11-21T11:16:27;1.52;;;1.00;;
21657;SDS011;10990;48.174;9.782;2023-11-21T11:18:53;2.00;;;1.10;;
21657;SDS011;10990;48.174;9.782;2023-11-21T11:21:23;3.05;;;1.20;;
21657;SDS011;10990;48.174;9.782;2023-11-21T11:24:01;1.80;;;1.00;;
21657;SDS011;10990;48.174;9.782;2023-11-21T11:26:55;1.63;;;1.10;;
21657;SDS011;10990;48.174;9.782;2023-11-21T11:29:31;3.53;;;1.10;;
21657;SDS011;10990;48.174;9.782;2023-11-21T11:32:09;2.50;;;0.93;;
21657;SDS011;10990;48.174;9.782;2023-11-21T11:34:45;1.58;;;1.13;;
21657;SDS011;10990;48.174;9.782;2023-11-21T11:37:18;2.10;;;1.30;;
21657;SDS011;10990;48.174;9.782;2023-11-21T11:39:45;2.13;;;1.10;;
21657;SDS011;10990;48.174;9.782;2023-11-21T11:42:12;2.35;;;1.00;;
21657;SDS011;10990;48.174;9.782;2023-11-21T11:44:53;1.15;;;1.00;;
21657;SDS011;10990;48.174;9.782;2023-11-21T11:47:20;1.15;;;0.80;;
21657;SDS011;10990;48.174;9.782;2023-11-21T11:49:57;1.70;;;0.80;;
21657;SDS011;10990;48.174;9.782;2023-11-21T11:52:34;0.70;;;0.70;;
21657;SDS011;10990;48.174;9.782;2023-11-21T11:55:02;0.68;;;0.50;;
21657;SDS011;10990;48.174;9.782;2023-11-21T11:57:29;1.13;;;0.70;;
21657;SDS011;10990;48.174;9.782;2023-11-21T12:00:14;2.28;;;0.80;;
21657;SDS011;10990;48.174;9.782;2023-11-21T12:02:41;1.58;;;0.88;;
21657;SDS011;10990;48.174;9.782;2023-11-21T12:05:10;0.70;;;0.70;;
21657;SDS011;10990;48.174;9.782;2023-11-21T12:07:46;0.93;;;0.50;;
21657;SDS011;10990;48.174;9.782;2023-11-21T12:10:14;0.77;;;0.60;;
21657;SDS011;10990;48.174;9.782;2023-11-21T12:12:42;0.77;;;0.50;;
21657;SDS011;10990;48.174;9.782;2023-11-21T12:15:09;1.08;;;0.60;;
21657;SDS011;10990;48.174;9.782;2023-11-21T12:17:38;1.00;;;0.55;;
21657;SDS011;10990;48.174;9.782;2023-11-21T12:20:06;1.80;;;0.80;;
21657;SDS011;10990;48.174;9.782;2023-11-21T12:22:32;1.08;;;0.68;;
21657;SDS011;10990;48.174;9.782;2023-11-21T12:24:59;0.98;;;0.90;;
21657;SDS011;10990;48.174;9.782;2023-11-21T12:27:25;0.88;;;0.70;;
21657;SDS011;10990;48.174;9.782;2023-11-21T12:29:51;0.85;;;0.60;;
21657;SDS011;10990;48.174;9.782;2023-11-21T12:32:17;1.05;;;0.63;;
21657;SDS011;10990;48.174;9.782;2023-11-21T12:34:46;2.67;;;0.90;;
21657;SDS011;10990;48.174;9.782;2023-11-21T12:37:12;0.65;;;0.60;;
21657;SDS011;10990;48.174;9.782;2023-11-21T12:39:38;1.65;;;0.80;;
21657;SDS011;10990;48.174;9.782;2023-11-21T12:42:04;2.50;;;0.93;;
21657;SDS011;10990;48.174;9.782;2023-11-21T12:44:31;1.27;;;0.52;;
21657;SDS011;10990;48.174;9.782;2023-11-21T12:46:57;1.63;;;0.50;;
21657;SDS011;10990;48.174;9.782;2023-11-21T12:49:23;0.77;;;0.55;;
21657;SDS011;10990;48.174;9.782;2023-11-21T12:51:52;2.00;;;0.47;;
21657;SDS011;10990;48.174;9.782;2023-11-21T12:54:18;0.98;;;0.20;;
21657;SDS011;10990;48.174;9.782;2023-11-21T12:56:45;0.20;;;0.20;;
21657;SDS011;10990;48.174;9.782;2023-11-21T12:59:12;0.35;;;0.20;;
21657;SDS011;10990;48.174;9.782;2023-11-21T13:01:38;1.00;;;0.25;;
21657;SDS011;10990;48.174;9.782;2023-11-21T13:04:07;0.10;;;0.10;;
21657;SDS011;10990;48.174;9.782;2023-11-21T13:06:33;0.10;;;0.10;;
21657;SDS011;10990;48.174;9.782;2023-11-21T13:09:02;0.47;;;0.10;;
21657;SDS011;10990;48.174;9.782;2023-11-21T13:11:29;0.95;;;0.43;;
21657;SDS011;10990;48.174;9.782;2023-11-21T13:13:59;0.50;;;0.20;;
21657;SDS011;10990;48.174;9.782;2023-11-21T13:16:25;0.30;;;0.30;;
21657;SDS011;10990;48.174;9.782;2023-11-21T13:18:52;1.35;;;0.30;;
21657;SDS011;10990;48.174;9.782;2023-11-21T13:21:18;0.45;;;0.28;;
21657;SDS011;10990;48.174;9.782;2023-11-21T13:23:44;0.20;;;0.20;;
21657;SDS011;10990;48.174;9.782;2023-11-21T13:26:13;1.23;;;0.30;;
21657;SDS011;10990;48.174;9.782;2023-11-21T13:28:39;0.40;;;0.40;;
21657;SDS011;10990;48.174;9.782;2023-11-21T13:31:05;0.98;;;0.30;;
21657;SDS011;10990;48.174;9.782;2023-11-21T13:33:32;0.30;;;0.30;;
21657;SDS011;10990;48.174;9.782;2023-11-21T13:35:58;1.03;;;0.50;;
21657;SDS011;10990;48.174;9.782;2023-11-21T13:38:24;0.60;;;0.60;;
21657;SDS011;10990;48.174;9.782;2023-11-21T13:40:50;1.03;;;0.50;;
21657;SDS011;10990;48.174;9.782;2023-11-21T13:43:20;1.48;;;0.40;;
21657;SDS011;10990;48.174;9.782;2023-11-21T13:45:48;0.50;;;0.30;;
21657;SDS011;10990;48.174;9.782;2023-11-21T13:48:15;0.40;;;0.30;;
21657;SDS011;10990;48.174;9.782;2023-11-21T13:50:41;0.30;;;0.30;;
21657;SDS011;10990;48.174;9.782;2023-11-21T13:53:08;1.75;;;0.50;;
21657;SDS011;10990;48.174;9.782;2023-11-21T13:55:34;0.50;;;0.30;;
21657;SDS011;10990;48.174;9.782;2023-11-21T13:58:00;1.13;;;0.60;;
21657;SDS011;10990;48.174;9.782;2023-11-21T14:00:29;1.07;;;0.60;;
21657;SDS011;10990;48.174;9.782;2023-11-21T14:02:55;0.70;;;0.70;;
21657;SDS011;10990;48.174;9.782;2023-11-21T14:05:22;1.97;;;0.70;;
21657;SDS011;10990;48.174;9.782;2023-11-21T14:07:48;1.17;;;0.90;;
21657;SDS011;10990;48.174;9.782;2023-11-21T14:10:14;1.33;;;1.00;;
21657;SDS011;10990;48.174;9.782;2023-11-21T14:12:40;1.50;;;0.77;;
21657;SDS011;10990;48.174;9.782;2023-11-21T14:15:06;1.67;;;0.93;;
21657;SDS011;10990;48.174;9.782;2023-11-21T14:17:35;1.97;;;1.20;;
21657;SDS011;10990;48.174;9.782;2023-11-21T14:20:02;1.63;;;1.20;;
21657;SDS011;10990;48.174;9.782;2023-11-21T14:22:28;1.33;;;0.80;;
21657;SDS011;10990;48.174;9.782;2023-11-21T14:24:54;1.53;;;1.00;;
21657;SDS011;10990;48.174;9.782;2023-11-21T14:27:20;1.00;;;0.83;;
21657;SDS011;10990;48.174;9.782;2023-11-21T14:29:46;0.67;;;0.67;;
21657;SDS011;10990;48.174;9.782;2023-11-21T14:32:13;1.20;;;1.10;;
21657;SDS011;10990;48.174;9.782;2023-11-21T14:34:41;4.03;;;2.60;;
21657;SDS011;10990;48.174;9.782;2023-11-21T14:37:07;3.63;;;1.90;;
21657;SDS011;10990;48.174;9.782;2023-11-21T14:39:34;1.83;;;1.43;;
21657;SDS011;10990;48.174;9.782;2023-11-21T14:42:00;2.73;;;1.20;;
21657;SDS011;10990;48.174;9.782;2023-11-21T14:44:26;3.60;;;2.03;;
21657;SDS011;10990;48.174;9.782;2023-11-21T14:46:52;3.63;;;2.07;;